createdAt,value
2023-04-04T00:02:58.059Z,5.10
2023-04-04T00:06:01.314Z,5.20
2023-04-04T00:09:04.487Z,5.00
2023-04-04T00:12:06.557Z,5.00
2023-04-04T00:15:09.128Z,5.00
2023-04-04T00:18:11.488Z,5.00
2023-04-04T00:21:13.502Z,5.10
2023-04-04T00:24:15.422Z,4.90
2023-04-04T00:27:17.418Z,4.90
2023-04-04T00:30:19.644Z,4.90
2023-04-04T00:33:23.975Z,4.90
2023-04-04T00:36:25.985Z,4.80
2023-04-04T00:39:27.959Z,4.80
2023-04-04T00:42:30.026Z,4.90
2023-04-04T00:45:32.039Z,4.90
2023-04-04T00:48:34.076Z,4.90
2023-04-04T00:51:36.076Z,4.90
2023-04-04T00:54:38.348Z,4.90
2023-04-04T00:57:41.088Z,4.90
2023-04-04T01:00:43.171Z,4.60
2023-04-04T01:03:45.673Z,4.80
2023-04-04T01:06:47.849Z,4.80
2023-04-04T01:09:50.884Z,4.70
2023-04-04T01:12:53.054Z,4.70
2023-04-04T01:15:55.322Z,4.50
2023-04-04T01:18:57.790Z,4.60
2023-04-04T01:22:01.187Z,4.60
2023-04-04T01:25:05.514Z,4.40
2023-04-04T01:28:07.688Z,4.40
2023-04-04T01:31:13.210Z,4.50
2023-04-04T01:34:20.762Z,4.40
2023-04-04T01:37:33.109Z,4.40
2023-04-04T01:40:37.699Z,4.40
2023-04-04T01:43:45.449Z,4.30
2023-04-04T01:46:52.650Z,4.30
2023-04-04T01:49:54.702Z,4.30
2023-04-04T01:52:59.976Z,4.30
2023-04-04T01:56:04.424Z,4.30
2023-04-04T01:59:15.488Z,4.30
2023-04-04T02:02:17.540Z,4.20
2023-04-04T02:05:20.255Z,4.20
2023-04-04T02:08:22.260Z,4.10
2023-04-04T02:11:28.933Z,4.30
2023-04-04T02:14:30.860Z,4.20
2023-04-04T02:17:32.859Z,4.10
2023-04-04T02:20:34.912Z,4.10
2023-04-04T02:23:36.830Z,4.20
2023-04-04T02:26:38.805Z,4.10
2023-04-04T02:29:41.249Z,4.00
2023-04-04T02:32:43.227Z,4.00
2023-04-04T02:35:49.214Z,3.90
2023-04-04T02:38:51.254Z,3.80
2023-04-04T02:41:56.053Z,3.90
2023-04-04T02:44:58.122Z,3.70
2023-04-04T02:48:00.300Z,3.80
2023-04-04T02:51:11.970Z,3.90
2023-04-04T02:54:13.978Z,3.90
2023-04-04T02:57:19.566Z,3.90
2023-04-04T03:00:21.678Z,3.70
2023-04-04T03:03:23.875Z,3.80
2023-04-04T03:06:26.042Z,3.80
2023-04-04T03:09:29.100Z,3.70
2023-04-04T03:12:31.327Z,3.70
2023-04-04T03:15:33.624Z,3.70
2023-04-04T03:18:35.664Z,3.50
2023-04-04T03:21:38.618Z,3.70
2023-04-04T03:24:41.015Z,3.70
2023-04-04T03:27:43.136Z,3.70
2023-04-04T03:30:45.157Z,3.60
2023-04-04T03:33:47.636Z,3.70
2023-04-04T03:36:50.459Z,3.40
2023-04-04T03:42:59.816Z,3.50
2023-04-04T03:46:02.754Z,3.50
2023-04-04T03:49:04.763Z,3.50
2023-04-04T03:52:07.346Z,3.40
2023-04-04T03:55:09.916Z,3.40
2023-04-04T03:58:11.946Z,3.40
2023-04-04T04:01:14.073Z,3.30
2023-04-04T04:04:17.119Z,3.30
2023-04-04T04:07:19.152Z,3.20
2023-04-04T04:10:24.652Z,3.30
2023-04-04T04:13:26.636Z,3.30
2023-04-04T04:16:29.381Z,3.30
2023-04-04T04:19:32.610Z,3.30
2023-04-04T04:22:35.048Z,3.30
2023-04-04T04:25:37.742Z,3.20
2023-04-04T04:28:49.616Z,3.20
2023-04-04T04:31:57.122Z,3.00
2023-04-04T04:35:03.537Z,3.10
2023-04-04T04:38:08.857Z,3.10
2023-04-04T04:41:11.389Z,3.30
2023-04-04T04:44:18.966Z,2.90
2023-04-04T04:47:21.924Z,3.10
2023-04-04T04:50:24.454Z,3.00
2023-04-04T04:53:27.335Z,2.90
2023-04-04T04:59:46.035Z,3.00
2023-04-04T05:02:49.882Z,3.00
2023-04-04T05:05:58.870Z,3.00
2023-04-04T05:09:01.677Z,3.00
2023-04-04T05:12:10.257Z,2.90
2023-04-04T05:15:20.296Z,2.90
2023-04-04T05:18:26.005Z,2.90
2023-04-04T05:21:28.585Z,3.00
2023-04-04T05:24:32.721Z,3.00
2023-04-04T05:27:35.999Z,2.90
2023-04-04T05:30:38.787Z,3.00
2023-04-04T05:33:47.199Z,2.90
2023-04-04T05:37:08.115Z,3.10
2023-04-04T05:40:11.175Z,3.10
2023-04-04T05:43:13.402Z,3.00
2023-04-04T05:46:31.680Z,3.10
2023-04-04T05:49:33.944Z,3.00
2023-04-04T05:52:37.355Z,3.10
2023-04-04T05:55:39.800Z,3.10
2023-04-04T05:58:43.759Z,3.20
2023-04-04T06:01:49.431Z,3.30
2023-04-04T06:04:52.961Z,3.40
2023-04-04T06:08:04.004Z,3.60
2023-04-04T06:11:05.962Z,3.50
2023-04-04T06:14:08.485Z,3.70
2023-04-04T06:17:11.178Z,4.00
2023-04-04T06:20:13.358Z,4.30
2023-04-04T06:23:16.950Z,4.80
2023-04-04T06:26:22.520Z,5.20
2023-04-04T06:29:25.810Z,5.40
2023-04-04T06:32:31.960Z,6.20
2023-04-04T06:35:34.241Z,6.90
2023-04-04T06:38:39.548Z,7.00
2023-04-04T06:41:50.331Z,7.40
2023-04-04T06:44:58.715Z,7.80
2023-04-04T06:48:00.832Z,7.90
2023-04-04T06:51:08.557Z,8.50
2023-04-04T06:54:13.176Z,9.40
2023-04-04T06:57:15.489Z,10.40
2023-04-04T07:00:17.970Z,11.00
2023-04-04T07:03:20.107Z,10.90
2023-04-04T07:06:25.642Z,10.80
2023-04-04T07:09:29.565Z,10.70
2023-04-04T07:12:32.577Z,11.80
2023-04-04T07:15:34.619Z,11.30
2023-04-04T07:18:36.814Z,12.40
2023-04-04T07:21:38.859Z,12.20
2023-04-04T07:24:41.418Z,12.70
2023-04-04T07:27:43.508Z,12.70
2023-04-04T07:30:46.000Z,12.90
2023-04-04T07:33:51.839Z,13.40
2023-04-04T07:36:53.961Z,12.90
2023-04-04T07:39:56.080Z,13.20
2023-04-04T07:42:58.158Z,13.20
2023-04-04T07:46:00.424Z,13.20
2023-04-04T07:49:02.543Z,13.10
2023-04-04T07:52:04.852Z,14.10
2023-04-04T07:55:07.265Z,13.70
2023-04-04T07:58:09.369Z,14.40
2023-04-04T08:01:11.434Z,13.90
2023-04-04T08:04:13.578Z,13.70
2023-04-04T08:07:15.710Z,14.00
2023-04-04T08:10:18.039Z,14.50
2023-04-04T08:13:20.162Z,14.00
2023-04-04T08:16:22.435Z,13.90
2023-04-04T08:19:25.498Z,13.60
2023-04-04T08:22:27.572Z,14.20
2023-04-04T08:25:29.807Z,13.30
2023-04-04T08:28:32.005Z,13.40
2023-04-04T08:31:34.205Z,13.70
2023-04-04T08:34:36.351Z,13.70
2023-04-04T08:37:38.773Z,13.60
2023-04-04T08:40:41.186Z,13.80
2023-04-04T08:43:47.572Z,14.30
2023-04-04T08:46:51.347Z,13.80
2023-04-04T08:49:54.818Z,14.00
2023-04-04T08:52:58.546Z,13.70
2023-04-04T08:56:01.076Z,14.00
2023-04-04T08:59:03.358Z,13.80
2023-04-04T09:02:05.415Z,14.40
2023-04-04T09:05:08.760Z,14.10
2023-04-04T09:08:11.753Z,14.90
2023-04-04T09:11:16.071Z,14.60
2023-04-04T09:14:21.093Z,14.70
2023-04-04T09:17:23.249Z,15.10
2023-04-04T09:20:35.440Z,14.60
2023-04-04T09:23:37.711Z,14.40
2023-04-04T09:26:48.621Z,14.70
2023-04-04T09:29:51.084Z,14.40
2023-04-04T09:32:53.564Z,14.60
2023-04-04T09:35:59.235Z,15.30
2023-04-04T09:39:03.352Z,14.40
2023-04-04T09:42:07.372Z,14.30
2023-04-04T09:45:11.686Z,14.90
2023-04-04T09:48:26.521Z,15.00
2023-04-04T09:51:39.024Z,14.00
2023-04-04T09:54:47.984Z,14.30
2023-04-04T09:57:50.522Z,13.80
2023-04-04T10:00:57.064Z,13.80
2023-04-04T10:03:59.361Z,13.90
2023-04-04T10:07:01.586Z,14.20
2023-04-04T10:10:06.999Z,15.00
2023-04-04T10:13:11.916Z,14.40
2023-04-04T10:16:14.615Z,14.40
2023-04-04T10:19:18.330Z,14.70
2023-04-04T10:22:21.566Z,14.60
2023-04-04T10:25:24.337Z,14.90
2023-04-04T10:28:28.697Z,14.90
2023-04-04T10:31:34.757Z,14.60
2023-04-04T10:34:50.828Z,14.50
2023-04-04T10:38:04.125Z,14.40
2023-04-04T10:41:08.561Z,14.70
2023-04-04T10:44:30.475Z,14.60
2023-04-04T10:47:34.207Z,15.20
2023-04-04T11:03:20.260Z,14.70
2023-04-04T11:06:23.620Z,13.90
2023-04-04T11:09:47.411Z,14.10
2023-04-04T11:13:05.518Z,13.10
2023-04-04T11:16:14.523Z,13.20
2023-04-04T11:19:17.725Z,13.20
2023-04-04T11:22:22.788Z,13.10
2023-04-04T11:25:24.760Z,13.00
2023-04-04T11:28:28.191Z,12.40
2023-04-04T11:31:43.108Z,12.90
2023-04-04T11:34:45.248Z,12.90
2023-04-04T11:37:53.461Z,13.10
2023-04-04T11:40:56.148Z,12.90
2023-04-04T11:44:03.313Z,12.90
2023-04-04T11:47:08.029Z,13.20
2023-04-04T11:50:10.509Z,13.30
2023-04-04T11:53:13.555Z,13.10
2023-04-04T11:56:16.229Z,12.60
2023-04-04T11:59:20.138Z,12.60
2023-04-04T12:02:26.446Z,12.90
2023-04-04T12:05:30.043Z,12.70
2023-04-04T12:08:32.174Z,12.50
2023-04-04T12:11:35.175Z,12.40
2023-04-04T12:14:37.181Z,12.10
2023-04-04T12:17:42.595Z,12.30
2023-04-04T12:20:48.609Z,12.40
2023-04-04T12:23:50.622Z,12.20
2023-04-04T12:26:53.921Z,12.50
2023-04-04T12:29:57.029Z,12.70
2023-04-04T12:33:02.010Z,12.80
2023-04-04T12:36:05.288Z,12.50
2023-04-04T12:39:09.822Z,12.40
2023-04-04T12:42:11.837Z,12.40
2023-04-04T12:45:13.782Z,12.40
2023-04-04T12:48:16.533Z,12.50
2023-04-04T12:51:18.813Z,12.90
2023-04-04T12:54:32.274Z,12.60
2023-04-04T12:57:34.720Z,12.30
2023-04-04T13:00:37.022Z,11.90
2023-04-04T13:03:39.365Z,12.40
2023-04-04T13:06:44.527Z,12.40
2023-04-04T13:09:53.818Z,11.90
2023-04-04T13:13:00.772Z,12.40
2023-04-04T13:16:04.585Z,12.40
2023-04-04T13:19:07.128Z,12.30
2023-04-04T13:22:09.832Z,12.70
2023-04-04T13:25:12.440Z,12.70
2023-04-04T13:28:14.713Z,12.50
2023-04-04T13:31:16.992Z,12.70
2023-04-04T13:34:20.565Z,12.50
2023-04-04T13:37:22.619Z,12.90
2023-04-04T13:40:24.702Z,12.90
2023-04-04T13:43:27.337Z,12.90
2023-04-04T13:46:29.497Z,12.70
2023-04-04T13:49:34.016Z,13.00
2023-04-04T13:52:36.093Z,12.90
2023-04-04T13:55:39.109Z,12.90
2023-04-04T13:58:45.651Z,12.70
2023-04-04T14:01:47.848Z,12.70
2023-04-04T14:04:49.850Z,12.40
2023-04-04T14:07:52.161Z,12.70
2023-04-04T14:10:54.319Z,12.70
2023-04-04T14:13:56.618Z,13.00
2023-04-04T14:16:58.691Z,12.90
2023-04-04T14:20:01.109Z,13.20
2023-04-04T14:23:03.314Z,12.90
2023-04-04T14:26:05.507Z,13.00
2023-04-04T14:29:07.564Z,12.50
2023-04-04T14:32:10.745Z,12.40
2023-04-04T14:35:12.889Z,12.70
2023-04-04T14:38:15.012Z,12.40
2023-04-04T14:41:17.260Z,12.90
2023-04-04T14:44:19.680Z,12.70
2023-04-04T14:47:21.973Z,12.80
2023-04-04T14:50:24.169Z,12.70
2023-04-04T14:53:26.244Z,12.20
2023-04-04T14:56:28.392Z,12.50
2023-04-04T14:59:30.527Z,12.70
2023-04-04T15:02:32.722Z,12.60
2023-04-04T15:05:34.930Z,12.40
2023-04-04T15:08:37.027Z,12.70
2023-04-04T15:11:39.872Z,12.50
2023-04-04T15:14:42.436Z,12.30
2023-04-04T15:17:45.068Z,12.40
2023-04-04T15:20:47.269Z,12.40
2023-04-04T15:23:49.549Z,12.60
2023-04-04T15:26:51.655Z,12.60
2023-04-04T15:29:53.709Z,12.50
2023-04-04T15:32:56.629Z,12.40
2023-04-04T15:35:58.702Z,12.60
2023-04-04T15:39:00.753Z,12.10
2023-04-04T15:42:03.169Z,12.20
2023-04-04T15:45:06.286Z,12.10
2023-04-04T15:48:08.409Z,12.00
2023-04-04T15:51:10.664Z,12.20
2023-04-04T15:54:13.114Z,12.10
2023-04-04T15:57:15.229Z,11.90
2023-04-04T16:00:17.923Z,12.10
2023-04-04T16:03:21.010Z,12.20
2023-04-04T16:06:23.233Z,12.20
2023-04-04T16:09:25.350Z,12.30
2023-04-04T16:12:27.567Z,12.10
2023-04-04T16:15:30.796Z,12.10
2023-04-04T16:18:32.905Z,11.90
2023-04-04T16:21:35.179Z,11.90
2023-04-04T16:24:41.290Z,11.80
2023-04-04T16:27:43.427Z,11.90
2023-04-04T16:30:45.554Z,12.10
2023-04-04T16:33:47.716Z,11.80
2023-04-04T16:36:49.851Z,11.60
2023-04-04T16:39:52.000Z,11.60
2023-04-04T16:42:54.138Z,11.70
2023-04-04T16:45:56.229Z,11.50
2023-04-04T16:48:58.528Z,11.40
2023-04-04T16:52:00.625Z,11.50
2023-04-04T16:55:02.746Z,11.40
2023-04-04T16:58:04.771Z,11.50
2023-04-04T17:01:06.818Z,11.50
2023-04-04T17:04:09.034Z,11.40
2023-04-04T17:07:11.122Z,11.00
2023-04-04T17:10:13.847Z,11.30
2023-04-04T17:13:16.353Z,11.30
2023-04-04T17:16:18.358Z,11.10
2023-04-04T17:19:20.391Z,11.00
2023-04-04T17:22:22.426Z,11.00
2023-04-04T17:25:24.355Z,10.80
2023-04-04T17:28:26.344Z,10.70
2023-04-04T17:31:28.588Z,10.60
2023-04-04T17:34:30.670Z,10.60
2023-04-04T17:37:32.805Z,10.60
2023-04-04T17:40:34.769Z,10.50
2023-04-04T17:43:36.696Z,10.20
2023-04-04T17:46:38.833Z,10.20
2023-04-04T17:49:40.905Z,10.00
2023-04-04T17:52:42.950Z,10.00
2023-04-04T17:55:45.684Z,9.90
2023-04-04T17:58:47.765Z,9.90
2023-04-04T18:01:50.271Z,9.90
2023-04-04T18:04:52.278Z,9.90
2023-04-04T18:07:54.313Z,9.90
2023-04-04T18:10:58.047Z,9.90
2023-04-04T18:14:00.124Z,9.70
2023-04-04T18:17:02.258Z,9.80
2023-04-04T18:20:04.720Z,9.80
2023-04-04T18:23:06.714Z,9.50
2023-04-04T18:26:09.215Z,9.50
2023-04-04T18:29:15.084Z,9.60
2023-04-04T18:32:18.180Z,9.50
2023-04-04T18:35:22.434Z,9.40
2023-04-04T18:38:24.511Z,9.50
2023-04-04T18:41:26.669Z,9.40
2023-04-04T18:44:28.735Z,9.40
2023-04-04T18:47:30.830Z,9.40
2023-04-04T18:50:32.893Z,9.40
2023-04-04T18:53:34.921Z,9.30
2023-04-04T18:56:38.533Z,9.20
2023-04-04T18:59:41.204Z,9.20
2023-04-04T19:02:43.396Z,9.10
2023-04-04T19:05:48.270Z,8.90
2023-04-04T19:08:51.423Z,8.90
2023-04-04T19:11:53.658Z,8.90
2023-04-04T19:14:55.848Z,8.80
2023-04-04T19:17:57.854Z,8.80
2023-04-04T19:20:59.899Z,8.90
2023-04-04T19:24:01.853Z,8.80
2023-04-04T19:27:03.859Z,8.80
2023-04-04T19:30:32.339Z,8.90
2023-04-04T19:33:34.443Z,8.90
2023-04-04T19:36:37.695Z,8.80
2023-04-04T19:39:39.910Z,8.70
2023-04-04T19:42:42.016Z,8.60
2023-04-04T19:45:52.119Z,8.50
2023-04-04T19:48:55.064Z,8.40
2023-04-04T19:51:58.145Z,8.20
2023-04-04T19:55:02.202Z,8.10
2023-04-04T19:58:04.494Z,8.10
2023-04-04T20:01:07.918Z,8.10
2023-04-04T20:04:10.734Z,8.00
2023-04-04T20:07:12.838Z,7.90
2023-04-04T20:10:39.403Z,7.90
2023-04-04T20:13:42.604Z,7.80
2023-04-04T20:16:45.015Z,7.90
2023-04-04T20:19:47.015Z,7.80
2023-04-04T20:22:49.331Z,7.70
2023-04-04T20:25:51.508Z,7.70
2023-04-04T20:28:53.725Z,7.70
2023-04-04T20:31:58.474Z,7.80
2023-04-04T20:35:00.665Z,7.70
2023-04-04T20:38:02.682Z,7.70
2023-04-04T20:41:30.918Z,7.60
2023-04-04T20:44:32.880Z,7.50
2023-04-04T20:47:42.307Z,7.40
2023-04-04T20:50:45.715Z,7.60
2023-04-04T20:53:47.910Z,7.40
2023-04-04T20:56:50.237Z,7.50
2023-04-04T20:59:54.577Z,7.50
2023-04-04T21:02:59.206Z,7.60
2023-04-04T21:06:09.188Z,7.50
2023-04-04T21:09:11.197Z,7.40
2023-04-04T21:12:13.245Z,7.40
2023-04-04T21:15:25.672Z,7.40
2023-04-04T21:18:30.515Z,7.40
2023-04-04T21:21:32.486Z,7.20
2023-04-04T21:24:35.768Z,7.20
2023-04-04T21:27:37.915Z,7.20
2023-04-04T21:30:43.768Z,7.20
2023-04-04T21:33:48.183Z,7.10
2023-04-04T21:36:52.024Z,7.00
2023-04-04T21:39:57.162Z,6.90
2023-04-04T21:42:59.157Z,7.00
2023-04-04T21:46:01.136Z,6.90
2023-04-04T21:49:04.201Z,6.90
2023-04-04T21:52:06.066Z,6.60
2023-04-04T21:55:08.395Z,6.70
2023-04-04T21:58:10.442Z,6.50
2023-04-04T22:01:12.787Z,6.50
2023-04-04T22:04:14.857Z,6.50
2023-04-04T22:07:16.961Z,6.40
2023-04-04T22:10:19.298Z,6.40
2023-04-04T22:13:21.750Z,6.30
2023-04-04T22:16:23.795Z,6.40
2023-04-04T22:19:25.788Z,6.40
2023-04-04T22:22:27.808Z,6.40
2023-04-04T22:25:29.862Z,6.30
2023-04-04T22:28:35.564Z,6.40
2023-04-04T22:31:37.930Z,6.20
2023-04-04T22:34:39.972Z,6.20
2023-04-04T22:37:41.952Z,6.20
2023-04-04T22:40:43.937Z,6.30
2023-04-04T22:43:45.879Z,6.10
2023-04-04T22:46:47.848Z,6.00
2023-04-04T22:49:50.204Z,6.00
2023-04-04T22:52:52.486Z,6.00
2023-04-04T22:55:55.100Z,5.90
2023-04-04T22:58:57.093Z,5.90
2023-04-04T23:01:59.075Z,5.70
2023-04-04T23:05:01.046Z,5.60
2023-04-04T23:08:03.602Z,5.70
2023-04-04T23:11:08.521Z,5.70
2023-04-04T23:14:10.802Z,5.60
2023-04-04T23:17:13.121Z,5.60
2023-04-04T23:20:15.101Z,5.70
2023-04-04T23:23:17.107Z,5.60
2023-04-04T23:26:19.018Z,5.80
2023-04-04T23:29:21.036Z,5.70
2023-04-04T23:32:23.573Z,5.70
2023-04-04T23:35:25.574Z,5.70
2023-04-04T23:38:27.776Z,5.60
2023-04-04T23:41:29.812Z,5.60
2023-04-04T23:44:31.896Z,5.60
2023-04-04T23:47:34.171Z,5.40
2023-04-04T23:50:36.471Z,5.60
2023-04-04T23:53:38.776Z,5.50
2023-04-04T23:56:40.786Z,5.60
2023-04-04T23:59:43.294Z,5.40
